Time;durP1;ratioP1;P1;durP2;ratioP2;P2;SDS_P1;SDS_P2;PMS_P1;PMS_P2;Temp;Humidity;BMP_temperature;BMP_pressure;BME280_temperature;BME280_humidity;BME280_pressure;Samples;Min_cycle;Max_cycle;Signal;HPM_P1;HPM_P2
2022/03/23 00:01:38;;;;;;;;;;;23.80;51.30;;;;;;4997509;28;1025;-42
2022/03/23 00:04:06;;;;;;;;;;;23.90;51.30;;;;;;4997629;28;1014;-41
2022/03/23 00:06:33;;;;;;;;;;;23.90;51.20;;;;;;4997508;28;859;-41
2022/03/23 00:09:00;;;;;;;;;;;23.90;51.20;;;;;;5001570;28;1050;-42
2022/03/23 00:11:27;;;;;;;;;;;23.80;51.40;;;;;;5002086;28;893;-42
2022/03/23 00:13:54;;;;;;;;;;;23.80;51.30;;;;;;5001322;28;1001;-33
2022/03/23 00:16:21;;;;;;;;;;;23.90;51.30;;;;;;5000797;28;1966;-39
2022/03/23 00:18:48;;;;;;;;;;;23.90;52.30;;;;;;5001270;28;1012;-39
2022/03/23 00:21:16;;;;;;;;;;;23.90;51.30;;;;;;4992646;28;972;-40
2022/03/23 00:23:43;;;;;;;;;;;23.90;51.30;;;;;;5000322;28;973;-39
2022/03/23 00:26:09;;;;;;;;;;;24.00;51.20;;;;;;5000629;28;978;-39
2022/03/23 00:28:37;;;;;;;;;;;24.00;51.20;;;;;;5000243;28;1006;-41
2022/03/23 00:31:04;;;;;;;;;;;24.10;51.10;;;;;;5000529;28;986;-39
2022/03/23 00:33:31;;;;;;;;;;;24.10;51.10;;;;;;5000806;28;934;-39
2022/03/23 00:35:58;;;;;;;;;;;24.10;51.20;;;;;;5000829;28;972;-40
2022/03/23 00:38:26;;;;;;;;;;;24.10;51.20;;;;;;5000213;28;1906;-39
2022/03/23 00:40:52;;;;;;;;;;;24.10;51.00;;;;;;4999921;28;977;-39
2022/03/23 00:43:19;;;;;;;;;;;24.10;51.20;;;;;;5000496;28;985;-39
2022/03/23 00:45:46;;;;;;;;;;;24.10;51.20;;;;;;5000722;28;997;-39
2022/03/23 00:48:13;;;;;;;;;;;24.10;51.10;;;;;;5000628;28;951;-39
2022/03/23 00:50:40;;;;;;;;;;;24.10;51.20;;;;;;5000158;28;962;-39
2022/03/23 00:53:07;;;;;;;;;;;24.10;51.20;;;;;;4999755;28;1005;-40
2022/03/23 00:55:35;;;;;;;;;;;24.10;51.20;;;;;;4999788;28;1363;-40
2022/03/23 00:58:01;;;;;;;;;;;24.20;51.20;;;;;;4999116;28;1977;-40
2022/03/23 01:00:28;;;;;;;;;;;24.10;51.10;;;;;;4998986;28;1044;-40
2022/03/23 01:02:55;;;;;;;;;;;24.10;51.20;;;;;;5000040;28;1033;-41
2022/03/23 01:05:22;;;;;;;;;;;24.10;51.20;;;;;;4999860;28;966;-40
2022/03/23 01:07:48;;;;;;;;;;;24.10;51.30;;;;;;5000080;28;950;-39
2022/03/23 01:10:15;;;;;;;;;;;24.00;51.20;;;;;;5000591;28;942;-39
2022/03/23 01:12:44;;;;;;;;;;;24.00;51.20;;;;;;4999377;28;1017;-39
2022/03/23 01:15:12;;;;;;;;;;;24.00;51.30;;;;;;4999414;28;993;-40
2022/03/23 01:17:39;;;;;;;;;;;24.00;51.30;;;;;;4999401;28;1910;-40
2022/03/23 01:20:08;;;;;;;;;;;24.00;51.30;;;;;;4998877;28;949;-40
2022/03/23 01:22:35;;;;;;;;;;;23.90;51.20;;;;;;4998971;28;1014;-40
2022/03/23 01:25:01;;;;;;;;;;;24.00;51.40;;;;;;4998669;28;1009;-41
2022/03/23 01:27:28;;;;;;;;;;;24.00;51.40;;;;;;4999280;28;946;-40
2022/03/23 01:29:56;;;;;;;;;;;23.90;51.40;;;;;;4998690;28;993;-40
2022/03/23 01:32:23;;;;;;;;;;;23.90;51.30;;;;;;5000566;28;1002;-39
2022/03/23 01:34:50;;;;;;;;;;;23.90;51.40;;;;;;4998688;28;1087;-39
2022/03/23 01:37:17;;;;;;;;;;;23.90;51.40;;;;;;4999598;28;1977;-41
2022/03/23 01:39:44;;;;;;;;;;;23.90;51.40;;;;;;4998964;28;1009;-39
2022/03/23 01:42:10;;;;;;;;;;;23.90;51.50;;;;;;4998718;28;990;-37
2022/03/23 01:44:37;;;;;;;;;;;23.90;51.50;;;;;;4999386;28;950;-40
2022/03/23 01:47:07;;;;;;;;;;;23.90;51.50;;;;;;4998368;28;994;-39
2022/03/23 01:49:34;;;;;;;;;;;23.80;51.50;;;;;;4998634;28;1026;-39
2022/03/23 01:52:01;;;;;;;;;;;23.80;51.60;;;;;;4998369;28;945;-40
2022/03/23 01:54:28;;;;;;;;;;;23.80;51.60;;;;;;4998737;28;1012;-39
2022/03/23 01:56:57;;;;;;;;;;;23.80;51.70;;;;;;4998301;28;1972;-40
2022/03/23 01:59:24;;;;;;;;;;;23.70;51.60;;;;;;4998836;28;1232;-40
2022/03/23 02:01:51;;;;;;;;;;;23.70;51.60;;;;;;4999265;28;982;-41
2022/03/23 02:04:19;;;;;;;;;;;23.70;51.80;;;;;;5000003;28;1021;-39
2022/03/23 02:06:46;;;;;;;;;;;23.70;51.80;;;;;;5000127;28;965;-51
2022/03/23 02:09:13;;;;;;;;;;;23.70;51.80;;;;;;4999510;28;1037;-38
2022/03/23 02:11:41;;;;;;;;;;;23.70;51.90;;;;;;4999420;28;949;-39
2022/03/23 02:14:08;;;;;;;;;;;23.60;51.80;;;;;;4999246;28;1102;-40
2022/03/23 02:16:39;;;;;;;;;;;23.60;51.70;;;;;;4999409;28;1962;-40
2022/03/23 02:19:05;;;;;;;;;;;23.60;51.90;;;;;;4999286;28;978;-41
2022/03/23 02:21:34;;;;;;;;;;;23.60;51.90;;;;;;4999616;28;962;-39
2022/03/23 02:24:03;;;;;;;;;;;23.60;51.80;;;;;;4998104;28;1136;-40
2022/03/23 02:26:30;;;;;;;;;;;23.60;51.80;;;;;;4997390;28;1024;-41
2022/03/23 02:28:56;;;;;;;;;;;23.60;51.90;;;;;;4998437;28;1006;-39
2022/03/23 02:31:23;;;;;;;;;;;23.60;51.80;;;;;;4996589;28;946;-39
2022/03/23 02:33:50;;;;;;;;;;;23.60;51.90;;;;;;4998174;28;906;-39
2022/03/23 02:36:16;;;;;;;;;;;23.60;51.90;;;;;;4997653;28;1045;-39
2022/03/23 02:38:43;;;;;;;;;;;23.60;51.90;;;;;;4998806;28;1981;-39
2022/03/23 02:41:11;;;;;;;;;;;23.60;51.80;;;;;;4998256;28;878;-39
2022/03/23 02:43:38;;;;;;;;;;;23.60;52.10;;;;;;4998649;28;1015;-39
2022/03/23 02:46:05;;;;;;;;;;;23.60;51.90;;;;;;4997803;28;1005;-42
2022/03/23 02:48:32;;;;;;;;;;;23.50;51.90;;;;;;4998286;28;1003;-39
2022/03/23 02:50:59;;;;;;;;;;;23.50;51.90;;;;;;4997636;28;1014;-39
2022/03/23 03:01:56;;;;;;;;;;;23.50;51.90;;;;;;4978470;28;989;-39
2022/03/23 03:04:24;;;;;;;;;;;23.50;52.00;;;;;;4979478;28;951;-39
2022/03/23 03:06:51;;;;;;;;;;;23.40;52.10;;;;;;4978171;28;1071;-39
2022/03/23 03:09:19;;;;;;;;;;;23.40;52.10;;;;;;4978661;28;981;-40
2022/03/23 03:11:47;;;;;;;;;;;23.50;52.20;;;;;;4978778;28;947;-39
2022/03/23 03:14:15;;;;;;;;;;;23.40;52.10;;;;;;4978482;28;975;-39
2022/03/23 03:16:43;;;;;;;;;;;23.40;52.20;;;;;;4978152;28;998;-39
2022/03/23 03:19:11;;;;;;;;;;;23.40;52.10;;;;;;4978022;28;1910;-40
2022/03/23 03:21:38;;;;;;;;;;;23.40;52.20;;;;;;4977891;28;1100;-39
2022/03/23 03:24:06;;;;;;;;;;;23.40;52.00;;;;;;4977170;28;1070;-38
2022/03/23 03:26:33;;;;;;;;;;;23.40;52.00;;;;;;4977109;28;982;-40
2022/03/23 03:29:00;;;;;;;;;;;23.30;52.10;;;;;;4977661;28;973;-39
2022/03/23 03:31:28;;;;;;;;;;;23.40;53.30;;;;;;4977101;28;911;-40
2022/03/23 03:33:54;;;;;;;;;;;23.40;52.10;;;;;;4977112;28;991;-39
2022/03/23 03:36:21;;;;;;;;;;;23.40;52.20;;;;;;4976990;28;1006;-39
2022/03/23 03:38:48;;;;;;;;;;;23.40;52.10;;;;;;4976929;28;1991;-39
2022/03/23 03:41:16;;;;;;;;;;;23.40;52.10;;;;;;4978512;28;987;-39
2022/03/23 03:43:44;;;;;;;;;;;23.30;52.10;;;;;;4978519;28;971;-40
2022/03/23 03:46:11;;;;;;;;;;;23.30;52.20;;;;;;4978435;28;1457;-39
2022/03/23 03:48:40;;;;;;;;;;;23.40;52.00;;;;;;4977937;28;1852;-39
2022/03/23 03:51:07;;;;;;;;;;;23.30;52.10;;;;;;4977823;28;989;-39
2022/03/23 03:53:33;;;;;;;;;;;23.40;52.00;;;;;;4978591;28;1794;-39
2022/03/23 03:56:00;;;;;;;;;;;23.40;52.10;;;;;;4978251;28;1018;-40
2022/03/23 03:58:27;;;;;;;;;;;23.30;52.00;;;;;;4984409;28;1979;-40
2022/03/23 04:00:54;;;;;;;;;;;23.40;52.00;;;;;;4998642;28;970;-40
2022/03/23 04:03:21;;;;;;;;;;;23.40;51.80;;;;;;4998541;28;978;-39
2022/03/23 04:05:49;;;;;;;;;;;23.40;51.80;;;;;;4996695;28;978;-40
2022/03/23 04:08:16;;;;;;;;;;;23.40;51.80;;;;;;4997239;28;1013;-40
2022/03/23 04:10:42;;;;;;;;;;;23.40;51.70;;;;;;4996200;28;946;-39
2022/03/23 04:13:09;;;;;;;;;;;23.40;51.80;;;;;;4995881;28;1006;-41
2022/03/23 04:15:36;;;;;;;;;;;23.40;51.80;;;;;;4995756;28;971;-40
2022/03/23 04:18:03;;;;;;;;;;;23.40;51.80;;;;;;4995857;28;1918;-39
2022/03/23 04:20:30;;;;;;;;;;;23.30;52.00;;;;;;4996732;28;1040;-40
2022/03/23 04:22:58;;;;;;;;;;;23.30;51.90;;;;;;4996374;28;1008;-40
2022/03/23 04:25:25;;;;;;;;;;;23.30;53.00;;;;;;4996214;28;989;-40
2022/03/23 04:27:52;;;;;;;;;;;23.30;52.10;;;;;;4997260;28;1006;-39
2022/03/23 04:30:20;;;;;;;;;;;23.30;52.10;;;;;;4997267;28;985;-40
2022/03/23 04:32:49;;;;;;;;;;;23.20;51.90;;;;;;4996706;28;979;-38
2022/03/23 04:35:16;;;;;;;;;;;23.20;52.10;;;;;;4997238;28;1033;-39
2022/03/23 04:37:43;;;;;;;;;;;23.30;52.20;;;;;;4995648;28;1906;-40
2022/03/23 04:40:14;;;;;;;;;;;23.20;52.00;;;;;;4996380;28;989;-38
2022/03/23 04:42:41;;;;;;;;;;;23.20;52.10;;;;;;4996205;28;966;-39
2022/03/23 04:45:08;;;;;;;;;;;23.20;52.20;;;;;;4995253;28;870;-39
2022/03/23 04:47:34;;;;;;;;;;;23.20;52.10;;;;;;4995252;28;986;-40
2022/03/23 04:50:02;;;;;;;;;;;23.20;52.20;;;;;;4995753;28;998;-39
2022/03/23 04:52:30;;;;;;;;;;;23.10;52.20;;;;;;4995725;28;954;-39
2022/03/23 04:54:57;;;;;;;;;;;23.10;52.10;;;;;;4997132;28;921;-39
2022/03/23 04:57:25;;;;;;;;;;;23.20;52.10;;;;;;4998992;28;1981;-39
2022/03/23 04:59:52;;;;;;;;;;;23.10;52.10;;;;;;4999513;28;1046;-40
2022/03/23 05:02:19;;;;;;;;;;;23.10;52.20;;;;;;5000269;28;1033;-40
2022/03/23 05:04:45;;;;;;;;;;;23.10;52.20;;;;;;4997965;28;1041;-39
2022/03/23 05:07:12;;;;;;;;;;;23.10;52.10;;;;;;4998751;28;1001;-40
2022/03/23 05:09:39;;;;;;;;;;;23.20;53.20;;;;;;4999177;28;1001;-39
2022/03/23 05:12:06;;;;;;;;;;;23.20;52.10;;;;;;4998420;28;946;-39
2022/03/23 05:14:35;;;;;;;;;;;23.10;52.20;;;;;;4998367;28;1006;-38
2022/03/23 05:17:01;;;;;;;;;;;23.10;52.20;;;;;;4998783;28;1006;-38
2022/03/23 05:19:28;;;;;;;;;;;23.10;52.20;;;;;;4998806;28;1903;-39
2022/03/23 05:21:55;;;;;;;;;;;23.10;52.30;;;;;;4998805;28;1362;-39
2022/03/23 05:24:21;;;;;;;;;;;23.10;52.20;;;;;;4998325;28;1013;-39
2022/03/23 05:26:48;;;;;;;;;;;23.10;52.30;;;;;;4997874;28;938;-39
2022/03/23 05:29:15;;;;;;;;;;;23.10;52.30;;;;;;4998755;28;988;-39
2022/03/23 05:31:43;;;;;;;;;;;23.10;52.30;;;;;;4998273;28;1006;-39
2022/03/23 05:34:10;;;;;;;;;;;23.10;52.30;;;;;;4998797;28;1010;-39
2022/03/23 05:36:37;;;;;;;;;;;23.00;52.10;;;;;;4997570;28;961;-39
2022/03/23 05:39:04;;;;;;;;;;;23.10;52.10;;;;;;4997666;28;1902;-39
2022/03/23 05:41:30;;;;;;;;;;;23.10;52.10;;;;;;4997157;28;1020;-39
2022/03/23 05:43:57;;;;;;;;;;;23.10;52.20;;;;;;4996471;28;1016;-39
2022/03/23 05:46:25;;;;;;;;;;;23.00;52.10;;;;;;4996700;28;997;-39
2022/03/23 05:48:54;;;;;;;;;;;23.00;52.10;;;;;;4997435;28;1029;-39
2022/03/23 05:51:20;;;;;;;;;;;23.00;52.10;;;;;;4995879;28;942;-39
2022/03/23 05:53:47;;;;;;;;;;;23.00;52.20;;;;;;4997654;28;921;-39
2022/03/23 05:56:14;;;;;;;;;;;23.00;52.20;;;;;;4997628;28;1033;-39
2022/03/23 05:58:41;;;;;;;;;;;23.00;52.20;;;;;;4998226;28;1906;-39
2022/03/23 06:01:07;;;;;;;;;;;23.00;52.10;;;;;;4999059;28;1005;-40
2022/03/23 06:03:35;;;;;;;;;;;23.00;52.10;;;;;;4997587;28;940;-39
2022/03/23 06:06:04;;;;;;;;;;;23.00;52.20;;;;;;4983622;28;1398;-39
2022/03/23 06:08:32;;;;;;;;;;;23.00;52.10;;;;;;4979925;28;1015;-39
2022/03/23 06:10:59;;;;;;;;;;;23.00;52.10;;;;;;4978990;28;1046;-39
2022/03/23 06:13:25;;;;;;;;;;;23.10;52.20;;;;;;4978450;28;997;-40
2022/03/23 06:15:52;;;;;;;;;;;23.00;52.20;;;;;;4978687;28;943;-40
2022/03/23 06:18:19;;;;;;;;;;;23.00;52.20;;;;;;4977893;28;1911;-39
2022/03/23 06:20:46;;;;;;;;;;;23.00;52.10;;;;;;4975873;28;934;-39
2022/03/23 06:23:14;;;;;;;;;;;23.00;52.20;;;;;;4976329;28;1018;-39
2022/03/23 06:25:41;;;;;;;;;;;23.10;52.10;;;;;;4975825;28;1005;-39
2022/03/23 06:28:07;;;;;;;;;;;23.00;52.10;;;;;;4975701;28;931;-39
2022/03/23 06:30:35;;;;;;;;;;;23.00;52.10;;;;;;4974536;28;935;-40
2022/03/23 06:33:01;;;;;;;;;;;23.00;52.10;;;;;;4974769;28;983;-40
2022/03/23 06:35:29;;;;;;;;;;;23.10;52.00;;;;;;4975722;28;970;-37
2022/03/23 06:37:56;;;;;;;;;;;23.00;52.00;;;;;;4975941;28;1903;-37
2022/03/23 06:40:25;;;;;;;;;;;23.00;52.10;;;;;;4975551;28;914;-37
2022/03/23 06:42:51;;;;;;;;;;;23.00;52.10;;;;;;4975160;28;2206;-38
2022/03/23 06:45:18;;;;;;;;;;;23.00;52.10;;;;;;4978423;28;2933;-37
2022/03/23 06:47:45;;;;;;;;;;;23.00;52.20;;;;;;4996131;28;1021;-37
2022/03/23 06:50:12;;;;;;;;;;;23.00;52.20;;;;;;4995192;28;1041;-38
2022/03/23 06:52:39;;;;;;;;;;;23.00;52.20;;;;;;4994558;28;990;-39
2022/03/23 06:55:06;;;;;;;;;;;23.00;52.10;;;;;;4994185;28;934;-39
2022/03/23 06:57:34;;;;;;;;;;;23.10;52.00;;;;;;4994493;28;1010;-46
2022/03/23 07:00:01;;;;;;;;;;;23.20;52.00;;;;;;4976125;28;1989;-46
2022/03/23 07:02:28;;;;;;;;;;;23.10;52.00;;;;;;4975310;28;1004;-46
2022/03/23 07:04:55;;;;;;;;;;;23.10;52.00;;;;;;4974996;28;982;-46
2022/03/23 07:07:21;;;;;;;;;;;23.20;52.20;;;;;;4973933;28;1005;-45
2022/03/23 07:09:47;;;;;;;;;;;23.20;52.10;;;;;;4975089;28;926;-45
2022/03/23 07:12:14;;;;;;;;;;;23.20;52.10;;;;;;4974326;28;1321;-39
2022/03/23 07:14:42;;;;;;;;;;;23.30;52.10;;;;;;4974117;28;906;-39
2022/03/23 07:17:09;;;;;;;;;;;23.20;52.00;;;;;;4973886;28;917;-39
2022/03/23 07:19:36;;;;;;;;;;;23.20;52.10;;;;;;4974719;28;1906;-36
2022/03/23 07:22:03;;;;;;;;;;;23.10;52.20;;;;;;4974815;28;870;-38
2022/03/23 07:24:30;;;;;;;;;;;23.10;52.30;;;;;;4973593;28;1092;-37
2022/03/23 07:26:57;;;;;;;;;;;23.10;52.30;;;;;;4974521;28;997;-39
2022/03/23 07:29:23;;;;;;;;;;;23.10;52.30;;;;;;4975639;28;989;-39
2022/03/23 07:31:51;;;;;;;;;;;23.20;53.40;;;;;;4973783;28;1014;-39
2022/03/23 07:34:19;;;;;;;;;;;23.10;52.40;;;;;;4974571;28;937;-39
2022/03/23 07:36:47;;;;;;;;;;;23.10;52.40;;;;;;4974643;28;1963;-39
2022/03/23 07:39:19;;;;;;;;;;;23.10;52.50;;;;;;4974706;28;1898;-39
2022/03/23 07:41:50;;;;;;;;;;;23.10;52.50;;;;;;4974771;28;1013;-42
2022/03/23 07:44:17;;;;;;;;;;;23.10;53.50;;;;;;4975018;28;946;-37
2022/03/23 07:46:43;;;;;;;;;;;23.10;52.30;;;;;;4974786;28;970;-37
2022/03/23 07:49:12;;;;;;;;;;;23.10;52.30;;;;;;4974617;28;1050;-39
2022/03/23 07:51:39;;;;;;;;;;;23.10;52.30;;;;;;4974701;28;1013;-39
2022/03/23 07:54:06;;;;;;;;;;;23.10;52.30;;;;;;4974852;28;1013;-39
2022/03/23 07:56:32;;;;;;;;;;;23.10;52.30;;;;;;4975381;28;1006;-39
2022/03/23 07:58:59;;;;;;;;;;;23.10;52.30;;;;;;4983547;28;1903;-39
2022/03/23 08:01:26;;;;;;;;;;;23.10;52.20;;;;;;4992844;28;994;-39
2022/03/23 08:03:53;;;;;;;;;;;23.10;52.20;;;;;;4991910;28;906;-39
2022/03/23 08:06:21;;;;;;;;;;;23.10;52.30;;;;;;4993004;28;962;-43
2022/03/23 08:08:48;;;;;;;;;;;23.10;52.20;;;;;;4991741;28;977;-43
2022/03/23 08:11:15;;;;;;;;;;;23.10;52.10;;;;;;4992722;28;1004;-40
2022/03/23 08:13:42;;;;;;;;;;;23.10;52.10;;;;;;4992366;28;1046;-39
2022/03/23 08:16:09;;;;;;;;;;;23.10;52.10;;;;;;4992190;28;989;-39
2022/03/23 08:18:36;;;;;;;;;;;23.10;52.10;;;;;;4992268;28;1983;-39
2022/03/23 08:21:03;;;;;;;;;;;23.10;52.10;;;;;;4992107;28;1867;-40
2022/03/23 08:23:32;;;;;;;;;;;23.10;52.10;;;;;;4992426;28;1234;-39
2022/03/23 08:25:59;;;;;;;;;;;23.10;52.00;;;;;;4991644;28;946;-39
2022/03/23 08:28:26;;;;;;;;;;;23.10;52.00;;;;;;4992656;28;1504;-39
2022/03/23 08:30:53;;;;;;;;;;;23.10;52.00;;;;;;4995676;28;1619;-39
2022/03/23 08:33:22;;;;;;;;;;;23.10;52.00;;;;;;4995404;28;1011;-39
2022/03/23 08:35:48;;;;;;;;;;;23.10;52.00;;;;;;4996753;28;1021;-39
2022/03/23 08:38:15;;;;;;;;;;;23.20;52.00;;;;;;4996084;28;974;-39
2022/03/23 08:40:44;;;;;;;;;;;23.10;52.00;;;;;;4996667;28;1981;-39
2022/03/23 08:43:11;;;;;;;;;;;23.10;52.00;;;;;;4997682;28;973;-39
2022/03/23 08:45:38;;;;;;;;;;;23.10;52.10;;;;;;4996168;28;882;-40
2022/03/23 08:48:05;;;;;;;;;;;23.10;52.10;;;;;;4996619;28;1001;-40
2022/03/23 08:50:32;;;;;;;;;;;23.10;52.10;;;;;;4996705;28;1005;-39
2022/03/23 08:53:00;;;;;;;;;;;23.10;52.00;;;;;;4997491;28;977;-40
2022/03/23 08:55:28;;;;;;;;;;;23.10;52.00;;;;;;4997407;28;1001;-39
2022/03/23 08:57:56;;;;;;;;;;;23.10;51.90;;;;;;4997334;28;1231;-40
2022/03/23 09:00:22;;;;;;;;;;;23.10;51.90;;;;;;4997530;28;1918;-39
2022/03/23 09:02:49;;;;;;;;;;;23.10;52.00;;;;;;4997459;28;982;-39
2022/03/23 09:05:18;;;;;;;;;;;23.10;52.10;;;;;;4996826;28;998;-40
2022/03/23 09:07:44;;;;;;;;;;;23.10;52.00;;;;;;4997075;28;973;-39
2022/03/23 09:10:13;;;;;;;;;;;23.10;52.00;;;;;;4996693;28;1033;-39
2022/03/23 09:12:39;;;;;;;;;;;23.10;53.00;;;;;;4996740;28;940;-40
2022/03/23 09:15:08;;;;;;;;;;;23.10;52.00;;;;;;4996427;28;989;-39
2022/03/23 09:17:35;;;;;;;;;;;23.10;52.00;;;;;;4996665;28;1051;-39
2022/03/23 09:20:02;;;;;;;;;;;23.10;52.00;;;;;;4997777;28;1902;-39
2022/03/23 09:22:29;;;;;;;;;;;23.10;52.00;;;;;;4997807;28;1023;-40
2022/03/23 09:24:56;;;;;;;;;;;23.10;51.90;;;;;;4997969;28;989;-40
2022/03/23 09:27:23;;;;;;;;;;;23.10;52.00;;;;;;4970300;28;918;-39
2022/03/23 09:29:49;;;;;;;;;;;23.10;52.00;;;;;;4999283;28;969;-39
2022/03/23 09:32:18;;;;;;;;;;;23.10;52.00;;;;;;4996332;28;985;-40
2022/03/23 09:34:45;;;;;;;;;;;23.10;52.00;;;;;;4996519;28;947;-39
2022/03/23 09:39:57;;;;;;;;;;;23.10;51.90;;;;;;4994583;28;1922;-39
2022/03/23 09:42:26;;;;;;;;;;;23.10;52.00;;;;;;4998452;28;993;-40
2022/03/23 09:44:55;;;;;;;;;;;23.10;52.00;;;;;;4995492;28;1024;-39
2022/03/23 09:47:23;;;;;;;;;;;23.10;52.00;;;;;;4998089;28;989;-39
2022/03/23 09:49:50;;;;;;;;;;;23.10;51.90;;;;;;4996888;28;933;-40
2022/03/23 09:52:17;;;;;;;;;;;23.10;52.00;;;;;;4996607;28;1005;-39
2022/03/23 09:54:45;;;;;;;;;;;23.10;51.90;;;;;;4996716;28;977;-39
2022/03/23 09:57:12;;;;;;;;;;;23.10;51.90;;;;;;4995407;28;950;-40
2022/03/23 09:59:38;;;;;;;;;;;23.10;52.00;;;;;;4995575;28;1988;-40
2022/03/23 10:02:20;;;;;;;;;;;23.10;52.00;;;;;;4996388;28;1136;-39
2022/03/23 10:05:17;;;;;;;;;;;23.10;52.00;;;;;;4994821;28;990;-40
2022/03/23 10:07:49;;;;;;;;;;;23.10;51.90;;;;;;4995961;28;905;-39
2022/03/23 10:10:30;;;;;;;;;;;23.10;51.90;;;;;;4994666;28;1028;-39
2022/03/23 10:13:15;;;;;;;;;;;23.10;51.80;;;;;;4963033;28;1212;-39
2022/03/23 10:16:00;;;;;;;;;;;23.10;51.80;;;;;;4995350;28;986;-39
2022/03/23 10:18:39;;;;;;;;;;;23.10;51.80;;;;;;4995478;28;1034;-39
2022/03/23 10:21:07;;;;;;;;;;;23.10;51.80;;;;;;4995156;28;1910;-39
2022/03/23 10:23:35;;;;;;;;;;;23.10;51.70;;;;;;4993919;28;1141;-39
2022/03/23 10:26:11;;;;;;;;;;;23.10;51.70;;;;;;4995681;28;938;-39
2022/03/23 10:28:38;;;;;;;;;;;23.10;51.70;;;;;;4995631;28;902;-39
2022/03/23 10:31:14;;;;;;;;;;;23.10;51.60;;;;;;4997454;28;874;-39
2022/03/23 10:33:41;;;;;;;;;;;23.10;51.70;;;;;;4997621;28;1408;-40
2022/03/23 10:36:08;;;;;;;;;;;23.20;51.80;;;;;;4993445;28;855;-39
2022/03/23 10:38:39;;;;;;;;;;;23.10;51.80;;;;;;4995544;28;999;-39
2022/03/23 10:41:08;;;;;;;;;;;23.10;51.70;;;;;;4994028;28;1902;-40
2022/03/23 10:43:37;;;;;;;;;;;23.10;51.80;;;;;;4995713;28;930;-40
2022/03/23 10:46:07;;;;;;;;;;;23.10;51.70;;;;;;4994417;28;975;-42
2022/03/23 10:48:34;;;;;;;;;;;23.10;51.70;;;;;;4994915;28;914;-40
2022/03/23 10:51:01;;;;;;;;;;;23.10;51.70;;;;;;4995107;28;982;-39
2022/03/23 10:53:31;;;;;;;;;;;23.10;51.80;;;;;;4992767;28;1033;-39
2022/03/23 10:56:00;;;;;;;;;;;23.10;51.70;;;;;;4993373;28;1005;-39
2022/03/23 10:58:27;;;;;;;;;;;23.10;51.70;;;;;;4993866;28;1828;-40
2022/03/23 11:00:54;;;;;;;;;;;23.10;51.80;;;;;;4993673;28;1902;-40
2022/03/23 11:03:34;;;;;;;;;;;23.10;51.70;;;;;;4993761;28;926;-39
2022/03/23 11:06:01;;;;;;;;;;;23.10;51.70;;;;;;4995030;28;989;-40
2022/03/23 11:08:28;;;;;;;;;;;23.10;51.70;;;;;;4994505;28;988;-39
2022/03/23 11:16:30;;;;;;;;;;;23.20;51.80;;;;;;4992599;28;679;-40
2022/03/23 11:18:58;;;;;;;;;;;23.10;51.60;;;;;;4992605;28;2060;-38
2022/03/23 11:21:24;;;;;;;;;;;23.20;51.70;;;;;;4992983;28;1987;-37
2022/03/23 11:23:51;;;;;;;;;;;23.20;51.60;;;;;;4993218;28;985;-37
2022/03/23 11:26:21;;;;;;;;;;;23.20;51.60;;;;;;4993610;28;1014;-37
2022/03/23 11:28:48;;;;;;;;;;;23.20;51.70;;;;;;4993877;28;1009;-37
2022/03/23 11:31:16;;;;;;;;;;;23.20;51.60;;;;;;4993191;28;981;-38
2022/03/23 11:33:45;;;;;;;;;;;23.10;51.70;;;;;;4993484;28;1067;-38
2022/03/23 11:36:12;;;;;;;;;;;23.20;51.70;;;;;;4992188;28;978;-37
2022/03/23 11:38:39;;;;;;;;;;;23.20;51.60;;;;;;4994692;28;1032;-36
2022/03/23 11:41:06;;;;;;;;;;;23.20;51.60;;;;;;4992846;28;1918;-38
2022/03/23 11:43:36;;;;;;;;;;;23.20;51.60;;;;;;4993434;28;997;-37
2022/03/23 11:46:04;;;;;;;;;;;23.20;51.50;;;;;;4993311;28;1013;-37
2022/03/23 11:48:39;;;;;;;;;;;23.20;51.50;;;;;;4992794;28;1028;-38
2022/03/23 11:51:15;;;;;;;;;;;23.20;51.50;;;;;;4992654;28;914;-37
2022/03/23 11:53:48;;;;;;;;;;;23.20;51.50;;;;;;4992970;28;1138;-37
2022/03/23 11:56:22;;;;;;;;;;;23.20;51.50;;;;;;4991681;28;918;-37
2022/03/23 11:58:52;;;;;;;;;;;23.20;51.60;;;;;;4990987;28;1105;-37
2022/03/23 12:01:19;;;;;;;;;;;23.20;51.50;;;;;;4991405;28;1969;-37
2022/03/23 12:03:50;;;;;;;;;;;23.20;51.50;;;;;;4995226;28;1072;-37
2022/03/23 12:06:18;;;;;;;;;;;23.20;51.50;;;;;;4998506;28;1017;-37
2022/03/23 12:08:50;;;;;;;;;;;23.20;51.50;;;;;;4999758;28;1021;-38
2022/03/23 12:11:32;;;;;;;;;;;23.20;51.50;;;;;;4999383;28;981;-38
2022/03/23 12:14:01;;;;;;;;;;;23.30;51.50;;;;;;4999403;28;927;-38
2022/03/23 12:16:46;;;;;;;;;;;23.20;51.40;;;;;;4998626;28;1089;-38
2022/03/23 12:19:17;;;;;;;;;;;23.20;51.40;;;;;;4998238;28;1006;-37
2022/03/23 12:21:48;;;;;;;;;;;23.20;51.40;;;;;;4994191;28;1987;-38
2022/03/23 12:24:19;;;;;;;;;;;23.20;51.50;;;;;;5001174;28;1033;-37
2022/03/23 12:26:49;;;;;;;;;;;23.20;51.50;;;;;;5002053;28;961;-37
2022/03/23 12:29:22;;;;;;;;;;;23.20;51.40;;;;;;5000921;28;1001;-38
2022/03/23 12:31:49;;;;;;;;;;;23.30;51.40;;;;;;5000617;28;950;-38
2022/03/23 12:34:18;;;;;;;;;;;23.30;51.40;;;;;;5000848;28;1005;-38
2022/03/23 12:36:59;;;;;;;;;;;23.30;51.40;;;;;;5000878;28;994;-38
2022/03/23 12:39:27;;;;;;;;;;;23.30;51.30;;;;;;4999774;28;958;-38
2022/03/23 12:41:54;;;;;;;;;;;23.30;51.40;;;;;;5000552;28;1981;-38
2022/03/23 12:44:30;;;;;;;;;;;23.30;51.40;;;;;;5001091;28;982;-37
2022/03/23 12:46:56;;;;;;;;;;;23.30;51.40;;;;;;4999727;28;974;-37
2022/03/23 12:58:01;;;;;;;;;;;23.20;51.30;;;;;;4998350;28;1177;-38
2022/03/23 13:00:30;;;;;;;;;;;23.30;51.40;;;;;;4998519;28;1979;-38
2022/03/23 13:03:24;;;;;;;;;;;23.20;51.30;;;;;;4999617;28;1037;-38
2022/03/23 13:06:07;;;;;;;;;;;23.30;51.30;;;;;;4965446;28;1021;-37
2022/03/23 13:08:46;;;;;;;;;;;23.30;51.40;;;;;;4998177;28;921;-38
2022/03/23 13:11:12;;;;;;;;;;;23.30;51.30;;;;;;4999838;28;1001;-38
2022/03/23 13:13:40;;;;;;;;;;;23.30;51.30;;;;;;4998055;28;1030;-39
2022/03/23 13:16:10;;;;;;;;;;;23.30;51.30;;;;;;4995361;28;914;-38
2022/03/23 13:18:37;;;;;;;;;;;23.30;51.20;;;;;;4996352;28;1001;-38
2022/03/23 13:21:08;;;;;;;;;;;23.30;51.20;;;;;;4995820;28;1922;-38
2022/03/23 13:23:35;;;;;;;;;;;23.30;51.20;;;;;;4995685;28;989;-38
2022/03/23 13:26:04;;;;;;;;;;;23.30;51.20;;;;;;4995721;28;851;-38
2022/03/23 13:28:32;;;;;;;;;;;23.30;51.20;;;;;;4995434;28;1039;-38
2022/03/23 13:30:59;;;;;;;;;;;23.30;51.20;;;;;;4994541;28;962;-38
2022/03/23 13:33:35;;;;;;;;;;;23.30;51.20;;;;;;4994660;28;991;-38
2022/03/23 13:36:02;;;;;;;;;;;23.30;51.20;;;;;;4993648;28;966;-38
2022/03/23 13:38:34;;;;;;;;;;;23.40;51.20;;;;;;4993435;28;991;-38
2022/03/23 13:43:45;;;;;;;;;;;23.40;51.10;;;;;;4994582;28;1357;-39
2022/03/23 13:46:11;;;;;;;;;;;23.40;51.10;;;;;;4995645;28;989;-39
2022/03/23 13:48:39;;;;;;;;;;;23.40;51.10;;;;;;4994548;28;971;-38
2022/03/23 13:51:06;;;;;;;;;;;23.50;51.00;;;;;;4993740;28;1002;-38
2022/03/23 13:53:33;;;;;;;;;;;23.50;50.80;;;;;;4993033;28;1009;-38
2022/03/23 13:56:00;;;;;;;;;;;23.50;50.70;;;;;;4993673;28;1018;-38
2022/03/23 13:58:27;;;;;;;;;;;23.60;50.70;;;;;;4992912;28;985;-39
2022/03/23 14:00:56;;;;;;;;;;;23.60;50.80;;;;;;4994272;28;1906;-38
2022/03/23 14:03:24;;;;;;;;;;;23.60;50.70;;;;;;4992498;28;958;-38
2022/03/23 14:06:05;;;;;;;;;;;23.60;50.50;;;;;;4995038;28;918;-38
2022/03/23 14:08:34;;;;;;;;;;;23.60;50.60;;;;;;4994956;28;1438;-38
2022/03/23 14:11:01;;;;;;;;;;;23.60;50.50;;;;;;4993188;28;878;-38
2022/03/23 14:13:27;;;;;;;;;;;23.60;50.50;;;;;;4994516;28;872;-38
2022/03/23 14:15:56;;;;;;;;;;;23.70;50.40;;;;;;4994261;28;955;-38
2022/03/23 14:18:25;;;;;;;;;;;23.70;50.40;;;;;;4994835;28;993;-44
2022/03/23 14:20:53;;;;;;;;;;;23.70;50.20;;;;;;4992511;28;1965;-45
2022/03/23 14:23:22;;;;;;;;;;;23.70;48.00;;;;;;4993305;28;1173;-47
2022/03/23 14:25:50;;;;;;;;;;;23.70;41.60;;;;;;4993862;28;1022;-47
2022/03/23 14:28:19;;;;;;;;;;;23.60;43.00;;;;;;4994293;28;1011;-48
2022/03/23 14:30:49;;;;;;;;;;;23.50;42.20;;;;;;4993846;28;906;-48
2022/03/23 14:33:19;;;;;;;;;;;23.60;41.40;;;;;;4994473;28;919;-40
2022/03/23 14:35:46;;;;;;;;;;;23.50;38.90;;;;;;4991957;28;1006;-40
2022/03/23 14:38:14;;;;;;;;;;;23.50;35.10;;;;;;4993119;28;999;-40
2022/03/23 14:40:49;;;;;;;;;;;23.40;33.90;;;;;;4993714;28;1988;-40
2022/03/23 14:43:34;;;;;;;;;;;23.30;32.40;;;;;;4992746;28;1005;-40
2022/03/23 14:46:20;;;;;;;;;;;23.40;34.10;;;;;;4994760;28;905;-39
2022/03/23 14:48:59;;;;;;;;;;;23.40;34.50;;;;;;4994296;28;1021;-39
2022/03/23 14:51:26;;;;;;;;;;;23.40;34.00;;;;;;4992345;28;927;-40
2022/03/23 14:53:53;;;;;;;;;;;23.40;32.90;;;;;;4993652;28;1045;-40
2022/03/23 14:56:21;;;;;;;;;;;23.40;33.70;;;;;;4993596;28;978;-40
2022/03/23 14:58:48;;;;;;;;;;;23.40;35.60;;;;;;4991767;28;1099;-39
2022/03/23 15:01:14;;;;;;;;;;;23.40;34.40;;;;;;4990597;28;1989;-39
2022/03/23 15:03:41;;;;;;;;;;;23.40;34.90;;;;;;4990213;28;1046;-40
2022/03/23 15:14:22;;;;;;;;;;;23.40;31.50;;;;;;4991394;28;609;-40
2022/03/23 15:16:48;;;;;;;;;;;23.40;32.30;;;;;;4991271;28;1104;-40
2022/03/23 15:19:16;;;;;;;;;;;23.40;35.70;;;;;;4993260;28;982;-40